sensor_id;sensor_type;location;lat;lon;timestamp;temperature;humidity
2441;DHT22;1231;53.988;9.470;2023-04-28T00:01:01;4.00;84.40
2441;DHT22;1231;53.988;9.470;2023-04-28T00:03:52;4.00;84.40
2441;DHT22;1231;53.988;9.470;2023-04-28T00:06:43;4.00;84.60
2441;DHT22;1231;53.988;9.470;2023-04-28T00:09:34;4.00;84.70
2441;DHT22;1231;53.988;9.470;2023-04-28T00:12:31;4.00;84.70
2441;DHT22;1231;53.988;9.470;2023-04-28T00:15:22;4.00;84.90
2441;DHT22;1231;53.988;9.470;2023-04-28T00:18:13;4.00;85.00
2441;DHT22;1231;53.988;9.470;2023-04-28T00:21:04;3.90;84.90
2441;DHT22;1231;53.988;9.470;2023-04-28T00:23:56;3.90;84.70
2441;DHT22;1231;53.988;9.470;2023-04-28T00:26:47;3.90;84.40
2441;DHT22;1231;53.988;9.470;2023-04-28T00:29:37;3.80;84.40
2441;DHT22;1231;53.988;9.470;2023-04-28T00:32:28;3.80;84.90
2441;DHT22;1231;53.988;9.470;2023-04-28T00:35:19;3.70;85.10
2441;DHT22;1231;53.988;9.470;2023-04-28T00:38:11;3.70;85.30
2441;DHT22;1231;53.988;9.470;2023-04-28T00:41:02;3.70;85.50
2441;DHT22;1231;53.988;9.470;2023-04-28T00:43:53;3.70;85.60
2441;DHT22;1231;53.988;9.470;2023-04-28T00:46:44;3.70;85.70
2441;DHT22;1231;53.988;9.470;2023-04-28T00:49:35;3.70;85.70
2441;DHT22;1231;53.988;9.470;2023-04-28T00:52:27;3.60;85.60
2441;DHT22;1231;53.988;9.470;2023-04-28T00:55:20;3.60;85.70
2441;DHT22;1231;53.988;9.470;2023-04-28T00:58:11;3.50;85.60
2441;DHT22;1231;53.988;9.470;2023-04-28T01:01:06;3.50;85.50
2441;DHT22;1231;53.988;9.470;2023-04-28T01:03:57;3.40;85.70
2441;DHT22;1231;53.988;9.470;2023-04-28T01:06:49;3.40;85.80
2441;DHT22;1231;53.988;9.470;2023-04-28T01:09:40;3.40;85.90
2441;DHT22;1231;53.988;9.470;2023-04-28T01:12:31;3.40;86.00
2441;DHT22;1231;53.988;9.470;2023-04-28T01:15:22;3.30;86.10
2441;DHT22;1231;53.988;9.470;2023-04-28T01:18:15;3.30;86.20
2441;DHT22;1231;53.988;9.470;2023-04-28T01:21:13;3.30;86.20
2441;DHT22;1231;53.988;9.470;2023-04-28T01:24:05;3.20;86.10
2441;DHT22;1231;53.988;9.470;2023-04-28T01:26:56;3.10;86.10
2441;DHT22;1231;53.988;9.470;2023-04-28T01:29:55;3.10;86.40
2441;DHT22;1231;53.988;9.470;2023-04-28T01:33:18;3.10;86.60
2441;DHT22;1231;53.988;9.470;2023-04-28T01:36:15;3.00;86.80
2441;DHT22;1231;53.988;9.470;2023-04-28T01:39:06;3.00;86.80
2441;DHT22;1231;53.988;9.470;2023-04-28T01:42:16;2.90;86.90
2441;DHT22;1231;53.988;9.470;2023-04-28T01:45:08;2.90;87.10
2441;DHT22;1231;53.988;9.470;2023-04-28T01:47:59;2.80;87.10
2441;DHT22;1231;53.988;9.470;2023-04-28T01:50:50;2.80;87.10
2441;DHT22;1231;53.988;9.470;2023-04-28T01:53:41;2.80;87.30
2441;DHT22;1231;53.988;9.470;2023-04-28T01:56:32;2.70;87.30
2441;DHT22;1231;53.988;9.470;2023-04-28T01:59:22;2.70;87.20
2441;DHT22;1231;53.988;9.470;2023-04-28T02:02:13;2.60;87.10
2441;DHT22;1231;53.988;9.470;2023-04-28T02:05:05;2.60;87.30
2441;DHT22;1231;53.988;9.470;2023-04-28T02:07:56;2.50;87.40
2441;DHT22;1231;53.988;9.470;2023-04-28T02:10:47;2.50;87.50
2441;DHT22;1231;53.988;9.470;2023-04-28T02:13:37;2.40;87.70
2441;DHT22;1231;53.988;9.470;2023-04-28T02:16:28;2.40;87.80
2441;DHT22;1231;53.988;9.470;2023-04-28T02:19:19;2.40;87.90
2441;DHT22;1231;53.988;9.470;2023-04-28T02:22:10;2.40;88.00
2441;DHT22;1231;53.988;9.470;2023-04-28T02:25:01;2.40;88.00
2441;DHT22;1231;53.988;9.470;2023-04-28T02:27:53;2.40;87.90
2441;DHT22;1231;53.988;9.470;2023-04-28T02:30:50;2.40;88.00
2441;DHT22;1231;53.988;9.470;2023-04-28T02:33:41;2.30;87.70
2441;DHT22;1231;53.988;9.470;2023-04-28T02:36:32;2.30;87.60
2441;DHT22;1231;53.988;9.470;2023-04-28T02:39:23;2.30;87.80
2441;DHT22;1231;53.988;9.470;2023-04-28T02:42:16;2.30;87.90
2441;DHT22;1231;53.988;9.470;2023-04-28T02:45:08;2.30;87.70
2441;DHT22;1231;53.988;9.470;2023-04-28T02:47:59;2.30;87.70
2441;DHT22;1231;53.988;9.470;2023-04-28T02:50:53;2.30;87.70
2441;DHT22;1231;53.988;9.470;2023-04-28T02:53:44;2.30;87.90
2441;DHT22;1231;53.988;9.470;2023-04-28T02:56:35;2.30;88.00
2441;DHT22;1231;53.988;9.470;2023-04-28T02:59:26;2.30;88.10
2441;DHT22;1231;53.988;9.470;2023-04-28T03:02:18;2.30;88.30
2441;DHT22;1231;53.988;9.470;2023-04-28T03:05:10;2.40;88.00
2441;DHT22;1231;53.988;9.470;2023-04-28T03:08:01;2.40;88.10
2441;DHT22;1231;53.988;9.470;2023-04-28T03:10:52;2.30;87.90
2441;DHT22;1231;53.988;9.470;2023-04-28T03:13:43;2.30;87.60
2441;DHT22;1231;53.988;9.470;2023-04-28T03:16:34;2.30;87.40
2441;DHT22;1231;53.988;9.470;2023-04-28T03:19:25;2.30;87.60
2441;DHT22;1231;53.988;9.470;2023-04-28T03:22:16;2.20;87.70
2441;DHT22;1231;53.988;9.470;2023-04-28T03:25:07;2.30;87.80
2441;DHT22;1231;53.988;9.470;2023-04-28T03:27:58;2.30;87.80
2441;DHT22;1231;53.988;9.470;2023-04-28T03:30:49;2.30;87.90
2441;DHT22;1231;53.988;9.470;2023-04-28T03:33:40;2.30;87.80
2441;DHT22;1231;53.988;9.470;2023-04-28T03:36:32;2.30;87.80
2441;DHT22;1231;53.988;9.470;2023-04-28T03:39:23;2.30;87.80
2441;DHT22;1231;53.988;9.470;2023-04-28T03:42:14;2.30;87.80
2441;DHT22;1231;53.988;9.470;2023-04-28T03:45:05;2.30;88.00
2441;DHT22;1231;53.988;9.470;2023-04-28T03:47:56;2.30;87.90
2441;DHT22;1231;53.988;9.470;2023-04-28T03:50:47;2.30;88.00
2441;DHT22;1231;53.988;9.470;2023-04-28T03:53:38;2.40;88.00
2441;DHT22;1231;53.988;9.470;2023-04-28T03:56:29;2.40;88.10
2441;DHT22;1231;53.988;9.470;2023-04-28T03:59:20;2.40;88.20
2441;DHT22;1231;53.988;9.470;2023-04-28T04:02:11;2.40;88.20
2441;DHT22;1231;53.988;9.470;2023-04-28T04:05:02;2.40;88.20
2441;DHT22;1231;53.988;9.470;2023-04-28T04:07:53;2.50;88.30
2441;DHT22;1231;53.988;9.470;2023-04-28T04:10:44;2.50;88.20
2441;DHT22;1231;53.988;9.470;2023-04-28T04:13:35;2.50;88.10
2441;DHT22;1231;53.988;9.470;2023-04-28T04:16:26;2.50;88.20
2441;DHT22;1231;53.988;9.470;2023-04-28T04:19:17;2.50;88.20
2441;DHT22;1231;53.988;9.470;2023-04-28T04:22:08;2.60;88.20
2441;DHT22;1231;53.988;9.470;2023-04-28T04:24:59;2.60;88.30
2441;DHT22;1231;53.988;9.470;2023-04-28T04:27:50;2.70;88.20
2441;DHT22;1231;53.988;9.470;2023-04-28T04:30:40;2.80;88.20
2441;DHT22;1231;53.988;9.470;2023-04-28T04:33:31;2.80;88.20
2441;DHT22;1231;53.988;9.470;2023-04-28T04:36:24;3.00;88.20
2441;DHT22;1231;53.988;9.470;2023-04-28T04:39:15;3.10;88.10
2441;DHT22;1231;53.988;9.470;2023-04-28T04:42:06;3.20;87.80
2441;DHT22;1231;53.988;9.470;2023-04-28T04:44:57;3.20;87.80
2441;DHT22;1231;53.988;9.470;2023-04-28T04:47:48;3.20;87.70
2441;DHT22;1231;53.988;9.470;2023-04-28T04:50:40;3.30;87.80
2441;DHT22;1231;53.988;9.470;2023-04-28T04:53:31;3.40;87.80
2441;DHT22;1231;53.988;9.470;2023-04-28T04:56:21;3.40;87.90
2441;DHT22;1231;53.988;9.470;2023-04-28T04:59:12;3.50;88.00
2441;DHT22;1231;53.988;9.470;2023-04-28T05:02:03;3.60;87.90
2441;DHT22;1231;53.988;9.470;2023-04-28T05:04:54;3.70;87.80
2441;DHT22;1231;53.988;9.470;2023-04-28T05:07:45;3.80;87.70
2441;DHT22;1231;53.988;9.470;2023-04-28T05:10:36;4.00;87.40
2441;DHT22;1231;53.988;9.470;2023-04-28T05:13:27;4.10;87.20
2441;DHT22;1231;53.988;9.470;2023-04-28T05:16:18;4.20;87.00
2441;DHT22;1231;53.988;9.470;2023-04-28T05:19:09;4.30;86.60
2441;DHT22;1231;53.988;9.470;2023-04-28T05:22:00;4.40;86.40
2441;DHT22;1231;53.988;9.470;2023-04-28T05:24:51;4.50;86.10
2441;DHT22;1231;53.988;9.470;2023-04-28T05:27:42;4.70;85.90
2441;DHT22;1231;53.988;9.470;2023-04-28T05:30:33;4.80;85.80
2441;DHT22;1231;53.988;9.470;2023-04-28T05:33:24;5.00;85.50
2441;DHT22;1231;53.988;9.470;2023-04-28T05:36:15;5.10;85.30
2441;DHT22;1231;53.988;9.470;2023-04-28T05:39:06;5.30;85.00
2441;DHT22;1231;53.988;9.470;2023-04-28T05:41:57;5.40;84.70
2441;DHT22;1231;53.988;9.470;2023-04-28T05:44:48;5.60;84.40
2441;DHT22;1231;53.988;9.470;2023-04-28T05:47:39;5.80;84.10
2441;DHT22;1231;53.988;9.470;2023-04-28T05:50:30;5.90;83.70
2441;DHT22;1231;53.988;9.470;2023-04-28T05:53:21;6.10;83.40
2441;DHT22;1231;53.988;9.470;2023-04-28T05:56:12;6.30;83.30
2441;DHT22;1231;53.988;9.470;2023-04-28T05:59:04;6.40;83.00
2441;DHT22;1231;53.988;9.470;2023-04-28T06:01:54;6.70;82.70
2441;DHT22;1231;53.988;9.470;2023-04-28T06:04:45;6.80;82.20
2441;DHT22;1231;53.988;9.470;2023-04-28T06:07:36;7.00;82.00
2441;DHT22;1231;53.988;9.470;2023-04-28T06:10:27;7.30;81.90
2441;DHT22;1231;53.988;9.470;2023-04-28T06:13:19;7.50;81.30
2441;DHT22;1231;53.988;9.470;2023-04-28T06:16:10;7.70;81.00
2441;DHT22;1231;53.988;9.470;2023-04-28T06:19:01;8.00;80.20
2441;DHT22;1231;53.988;9.470;2023-04-28T06:21:53;8.10;79.30
2441;DHT22;1231;53.988;9.470;2023-04-28T06:24:44;8.40;78.50
2441;DHT22;1231;53.988;9.470;2023-04-28T06:27:35;8.70;78.50
2441;DHT22;1231;53.988;9.470;2023-04-28T06:30:25;9.50;78.80
2441;DHT22;1231;53.988;9.470;2023-04-28T06:33:16;10.40;77.30
2441;DHT22;1231;53.988;9.470;2023-04-28T06:36:07;11.50;74.40
2441;DHT22;1231;53.988;9.470;2023-04-28T06:38:58;12.50;70.00
2441;DHT22;1231;53.988;9.470;2023-04-28T06:41:49;13.10;65.80
2441;DHT22;1231;53.988;9.470;2023-04-28T06:44:40;13.70;63.00
2441;DHT22;1231;53.988;9.470;2023-04-28T06:47:31;14.30;61.00
2441;DHT22;1231;53.988;9.470;2023-04-28T06:50:23;14.60;59.50
2441;DHT22;1231;53.988;9.470;2023-04-28T06:53:13;15.00;58.40
2441;DHT22;1231;53.988;9.470;2023-04-28T06:56:05;15.50;57.30
2441;DHT22;1231;53.988;9.470;2023-04-28T06:58:56;15.80;55.70
2441;DHT22;1231;53.988;9.470;2023-04-28T07:01:48;16.00;54.70
2441;DHT22;1231;53.988;9.470;2023-04-28T07:04:39;16.00;54.40
2441;DHT22;1231;53.988;9.470;2023-04-28T07:07:30;15.90;54.70
2441;DHT22;1231;53.988;9.470;2023-04-28T07:10:21;15.80;54.60
2441;DHT22;1231;53.988;9.470;2023-04-28T07:13:12;15.70;54.20
2441;DHT22;1231;53.988;9.470;2023-04-28T07:16:03;15.10;53.60
2441;DHT22;1231;53.988;9.470;2023-04-28T07:18:54;14.50;55.10
2441;DHT22;1231;53.988;9.470;2023-04-28T07:21:52;14.20;56.60
2441;DHT22;1231;53.988;9.470;2023-04-28T07:24:43;14.20;57.20
2441;DHT22;1231;53.988;9.470;2023-04-28T07:27:34;14.20;58.10
2441;DHT22;1231;53.988;9.470;2023-04-28T07:30:25;14.30;57.60
2441;DHT22;1231;53.988;9.470;2023-04-28T07:33:16;14.40;57.60
2441;DHT22;1231;53.988;9.470;2023-04-28T07:36:07;14.40;57.40
2441;DHT22;1231;53.988;9.470;2023-04-28T07:38:59;14.50;57.00
2441;DHT22;1231;53.988;9.470;2023-04-28T07:41:51;14.60;56.40
2441;DHT22;1231;53.988;9.470;2023-04-28T07:44:42;14.60;56.10
2441;DHT22;1231;53.988;9.470;2023-04-28T07:47:33;14.60;56.60
2441;DHT22;1231;53.988;9.470;2023-04-28T07:50:24;14.60;56.80
2441;DHT22;1231;53.988;9.470;2023-04-28T07:53:15;14.70;56.30
2441;DHT22;1231;53.988;9.470;2023-04-28T07:56:06;14.80;55.80
2441;DHT22;1231;53.988;9.470;2023-04-28T07:58:57;15.00;53.80
2441;DHT22;1231;53.988;9.470;2023-04-28T08:01:55;15.10;53.70
2441;DHT22;1231;53.988;9.470;2023-04-28T08:04:46;15.20;52.90
2441;DHT22;1231;53.988;9.470;2023-04-28T08:07:37;15.50;53.30
2441;DHT22;1231;53.988;9.470;2023-04-28T08:10:28;15.70;52.40
2441;DHT22;1231;53.988;9.470;2023-04-28T08:13:19;15.80;50.00
2441;DHT22;1231;53.988;9.470;2023-04-28T08:16:10;15.90;50.90
2441;DHT22;1231;53.988;9.470;2023-04-28T08:19:01;15.90;50.90
2441;DHT22;1231;53.988;9.470;2023-04-28T08:21:52;15.80;49.80
2441;DHT22;1231;53.988;9.470;2023-04-28T08:24:43;15.80;50.90
2441;DHT22;1231;53.988;9.470;2023-04-28T08:27:35;15.90;50.60
2441;DHT22;1231;53.988;9.470;2023-04-28T08:30:27;15.80;50.80
2441;DHT22;1231;53.988;9.470;2023-04-28T08:33:18;15.80;50.80
2441;DHT22;1231;53.988;9.470;2023-04-28T08:36:10;15.70;50.00
2441;DHT22;1231;53.988;9.470;2023-04-28T08:39:01;15.70;50.80
2441;DHT22;1231;53.988;9.470;2023-04-28T08:41:53;15.80;51.10
2441;DHT22;1231;53.988;9.470;2023-04-28T08:44:44;15.90;51.70
2441;DHT22;1231;53.988;9.470;2023-04-28T08:47:37;16.10;51.50
2441;DHT22;1231;53.988;9.470;2023-04-28T08:50:30;16.20;51.10
2441;DHT22;1231;53.988;9.470;2023-04-28T08:53:24;16.30;49.80
2441;DHT22;1231;53.988;9.470;2023-04-28T08:56:16;16.50;51.50
2441;DHT22;1231;53.988;9.470;2023-04-28T08:59:08;16.50;50.20
2441;DHT22;1231;53.988;9.470;2023-04-28T09:01:59;16.60;50.10
2441;DHT22;1231;53.988;9.470;2023-04-28T09:04:51;16.60;50.00
2441;DHT22;1231;53.988;9.470;2023-04-28T09:07:44;16.80;50.60
2441;DHT22;1231;53.988;9.470;2023-04-28T09:10:36;16.90;49.10
2441;DHT22;1231;53.988;9.470;2023-04-28T09:13:27;17.00;48.50
2441;DHT22;1231;53.988;9.470;2023-04-28T09:16:18;17.10;49.00
2441;DHT22;1231;53.988;9.470;2023-04-28T09:19:09;17.20;49.00
2441;DHT22;1231;53.988;9.470;2023-04-28T09:22:02;17.10;48.30
2441;DHT22;1231;53.988;9.470;2023-04-28T09:24:53;17.10;49.30
2441;DHT22;1231;53.988;9.470;2023-04-28T09:27:45;17.10;48.60
2441;DHT22;1231;53.988;9.470;2023-04-28T09:30:39;17.00;48.20
2441;DHT22;1231;53.988;9.470;2023-04-28T09:33:30;17.10;48.20
2441;DHT22;1231;53.988;9.470;2023-04-28T09:36:28;17.20;48.40
2441;DHT22;1231;53.988;9.470;2023-04-28T09:39:29;17.20;47.50
2441;DHT22;1231;53.988;9.470;2023-04-28T09:42:42;17.00;47.10
2441;DHT22;1231;53.988;9.470;2023-04-28T09:45:38;16.90;47.00
2441;DHT22;1231;53.988;9.470;2023-04-28T09:48:33;16.80;48.00
2441;DHT22;1231;53.988;9.470;2023-04-28T09:51:25;16.70;48.00
2441;DHT22;1231;53.988;9.470;2023-04-28T09:54:16;16.80;48.40
2441;DHT22;1231;53.988;9.470;2023-04-28T09:57:08;16.80;47.80
2441;DHT22;1231;53.988;9.470;2023-04-28T10:00:01;16.80;48.10
2441;DHT22;1231;53.988;9.470;2023-04-28T10:02:55;16.90;48.60
2441;DHT22;1231;53.988;9.470;2023-04-28T10:05:47;17.00;47.80
2441;DHT22;1231;53.988;9.470;2023-04-28T10:08:39;17.10;47.30
2441;DHT22;1231;53.988;9.470;2023-04-28T10:11:33;17.20;47.50
2441;DHT22;1231;53.988;9.470;2023-04-28T10:14:24;17.40;48.80
2441;DHT22;1231;53.988;9.470;2023-04-28T10:17:16;17.60;48.40
2441;DHT22;1231;53.988;9.470;2023-04-28T10:20:08;17.80;48.00
2441;DHT22;1231;53.988;9.470;2023-04-28T10:26:10;17.90;46.80
2441;DHT22;1231;53.988;9.470;2023-04-28T10:29:01;17.90;46.40
2441;DHT22;1231;53.988;9.470;2023-04-28T10:32:18;17.90;46.60
2441;DHT22;1231;53.988;9.470;2023-04-28T10:38:16;18.30;46.70
2441;DHT22;1231;53.988;9.470;2023-04-28T10:41:30;18.30;47.10
2441;DHT22;1231;53.988;9.470;2023-04-28T10:47:18;18.30;45.80
2441;DHT22;1231;53.988;9.470;2023-04-28T10:50:10;18.20;44.40
2441;DHT22;1231;53.988;9.470;2023-04-28T10:53:01;18.20;44.90
2441;DHT22;1231;53.988;9.470;2023-04-28T10:56:04;18.10;44.60
2441;DHT22;1231;53.988;9.470;2023-04-28T10:58:57;18.10;44.70
2441;DHT22;1231;53.988;9.470;2023-04-28T11:01:48;18.20;45.10
2441;DHT22;1231;53.988;9.470;2023-04-28T11:05:16;18.30;45.50
2441;DHT22;1231;53.988;9.470;2023-04-28T11:11:19;18.30;45.60
2441;DHT22;1231;53.988;9.470;2023-04-28T11:17:09;18.40;45.00
2441;DHT22;1231;53.988;9.470;2023-04-28T11:20:03;18.30;44.10
2441;DHT22;1231;53.988;9.470;2023-04-28T11:22:55;18.30;44.50
2441;DHT22;1231;53.988;9.470;2023-04-28T11:25:53;18.40;44.80
2441;DHT22;1231;53.988;9.470;2023-04-28T11:28:52;18.60;44.20
2441;DHT22;1231;53.988;9.470;2023-04-28T11:31:49;18.80;44.90
2441;DHT22;1231;53.988;9.470;2023-04-28T11:34:41;18.80;43.90
2441;DHT22;1231;53.988;9.470;2023-04-28T11:37:32;18.80;43.00
2441;DHT22;1231;53.988;9.470;2023-04-28T11:40:23;18.80;44.90
2441;DHT22;1231;53.988;9.470;2023-04-28T11:43:14;18.90;44.70
2441;DHT22;1231;53.988;9.470;2023-04-28T11:46:06;18.90;44.00
2441;DHT22;1231;53.988;9.470;2023-04-28T11:49:04;18.90;44.90
2441;DHT22;1231;53.988;9.470;2023-04-28T11:51:57;19.00;45.10
2441;DHT22;1231;53.988;9.470;2023-04-28T11:54:53;19.00;44.20
2441;DHT22;1231;53.988;9.470;2023-04-28T11:57:45;19.00;44.70
2441;DHT22;1231;53.988;9.470;2023-04-28T12:00:36;19.20;44.60
2441;DHT22;1231;53.988;9.470;2023-04-28T12:03:27;19.40;44.10
2441;DHT22;1231;53.988;9.470;2023-04-28T12:06:18;19.60;44.40
2441;DHT22;1231;53.988;9.470;2023-04-28T12:09:18;19.80;43.90
2441;DHT22;1231;53.988;9.470;2023-04-28T12:12:27;19.80;43.20
2441;DHT22;1231;53.988;9.470;2023-04-28T12:15:20;19.90;43.30
2441;DHT22;1231;53.988;9.470;2023-04-28T12:18:11;20.00;42.80
2441;DHT22;1231;53.988;9.470;2023-04-28T12:21:03;20.00;42.80
2441;DHT22;1231;53.988;9.470;2023-04-28T12:23:54;19.80;42.10
2441;DHT22;1231;53.988;9.470;2023-04-28T12:26:47;19.60;42.20
2441;DHT22;1231;53.988;9.470;2023-04-28T12:29:38;19.30;42.30
2441;DHT22;1231;53.988;9.470;2023-04-28T12:32:56;19.10;42.80
2441;DHT22;1231;53.988;9.470;2023-04-28T12:35:47;19.00;43.00
2441;DHT22;1231;53.988;9.470;2023-04-28T12:38:47;18.90;43.70
2441;DHT22;1231;53.988;9.470;2023-04-28T12:41:38;18.80;44.30
2441;DHT22;1231;53.988;9.470;2023-04-28T12:44:33;18.80;44.60
2441;DHT22;1231;53.988;9.470;2023-04-28T12:47:27;18.70;44.80
2441;DHT22;1231;53.988;9.470;2023-04-28T12:50:18;18.80;44.90
2441;DHT22;1231;53.988;9.470;2023-04-28T12:53:09;18.80;45.30
2441;DHT22;1231;53.988;9.470;2023-04-28T12:56:00;18.80;46.20
2441;DHT22;1231;53.988;9.470;2023-04-28T12:58:51;18.70;45.80
2441;DHT22;1231;53.988;9.470;2023-04-28T13:01:49;18.50;45.10
2441;DHT22;1231;53.988;9.470;2023-04-28T13:04:40;18.30;45.90
2441;DHT22;1231;53.988;9.470;2023-04-28T13:07:38;18.20;46.00
2441;DHT22;1231;53.988;9.470;2023-04-28T13:10:28;18.00;46.00
2441;DHT22;1231;53.988;9.470;2023-04-28T13:13:19;17.90;47.60
2441;DHT22;1231;53.988;9.470;2023-04-28T13:16:10;17.80;47.70
2441;DHT22;1231;53.988;9.470;2023-04-28T13:19:02;17.80;48.10
2441;DHT22;1231;53.988;9.470;2023-04-28T13:21:53;17.90;48.60
2441;DHT22;1231;53.988;9.470;2023-04-28T13:24:44;17.90;48.10
2441;DHT22;1231;53.988;9.470;2023-04-28T13:27:35;17.80;47.30
2441;DHT22;1231;53.988;9.470;2023-04-28T13:30:26;17.70;48.30
2441;DHT22;1231;53.988;9.470;2023-04-28T13:33:17;17.70;49.00
2441;DHT22;1231;53.988;9.470;2023-04-28T13:36:14;17.70;49.60
2441;DHT22;1231;53.988;9.470;2023-04-28T13:39:05;17.70;51.00
2441;DHT22;1231;53.988;9.470;2023-04-28T13:41:56;17.70;51.90
2441;DHT22;1231;53.988;9.470;2023-04-28T13:44:47;17.70;52.30
2441;DHT22;1231;53.988;9.470;2023-04-28T13:47:38;17.50;52.20
2441;DHT22;1231;53.988;9.470;2023-04-28T13:50:29;17.30;52.60
2441;DHT22;1231;53.988;9.470;2023-04-28T13:53:20;17.20;53.00
2441;DHT22;1231;53.988;9.470;2023-04-28T13:56:11;17.10;53.60
2441;DHT22;1231;53.988;9.470;2023-04-28T13:59:02;17.00;53.50
2441;DHT22;1231;53.988;9.470;2023-04-28T14:01:53;16.80;53.40
2441;DHT22;1231;53.988;9.470;2023-04-28T14:04:44;16.70;54.10
2441;DHT22;1231;53.988;9.470;2023-04-28T14:07:38;16.60;55.70
2441;DHT22;1231;53.988;9.470;2023-04-28T14:10:29;16.40;56.20
2441;DHT22;1231;53.988;9.470;2023-04-28T14:13:20;16.20;57.00
2441;DHT22;1231;53.988;9.470;2023-04-28T14:16:11;15.90;57.70
2441;DHT22;1231;53.988;9.470;2023-04-28T14:19:02;15.60;58.80
2441;DHT22;1231;53.988;9.470;2023-04-28T14:21:53;15.40;59.80
2441;DHT22;1231;53.988;9.470;2023-04-28T14:24:44;15.20;60.50
2441;DHT22;1231;53.988;9.470;2023-04-28T14:27:35;15.00;61.50
2441;DHT22;1231;53.988;9.470;2023-04-28T14:30:26;14.90;62.40
2441;DHT22;1231;53.988;9.470;2023-04-28T14:33:17;14.80;62.90
2441;DHT22;1231;53.988;9.470;2023-04-28T14:36:08;14.70;63.60
2441;DHT22;1231;53.988;9.470;2023-04-28T14:38:59;14.60;63.90
2441;DHT22;1231;53.988;9.470;2023-04-28T14:41:51;14.60;64.20
2441;DHT22;1231;53.988;9.470;2023-04-28T14:44:42;14.50;64.20
2441;DHT22;1231;53.988;9.470;2023-04-28T14:47:35;14.40;64.50
2441;DHT22;1231;53.988;9.470;2023-04-28T14:50:26;14.40;64.70
2441;DHT22;1231;53.988;9.470;2023-04-28T14:53:17;14.30;64.80
2441;DHT22;1231;53.988;9.470;2023-04-28T14:56:08;14.20;64.80
2441;DHT22;1231;53.988;9.470;2023-04-28T14:58:59;14.20;64.80
2441;DHT22;1231;53.988;9.470;2023-04-28T15:01:50;14.20;65.20
2441;DHT22;1231;53.988;9.470;2023-04-28T15:04:41;14.20;65.20
2441;DHT22;1231;53.988;9.470;2023-04-28T15:07:32;14.20;65.00
2441;DHT22;1231;53.988;9.470;2023-04-28T15:10:23;14.10;65.10
2441;DHT22;1231;53.988;9.470;2023-04-28T15:13:14;14.10;65.00
2441;DHT22;1231;53.988;9.470;2023-04-28T15:16:05;14.00;65.10
2441;DHT22;1231;53.988;9.470;2023-04-28T15:18:57;13.90;65.30
2441;DHT22;1231;53.988;9.470;2023-04-28T15:21:48;13.90;65.60
2441;DHT22;1231;53.988;9.470;2023-04-28T15:24:39;13.90;65.80
2441;DHT22;1231;53.988;9.470;2023-04-28T15:27:31;13.80;65.90
2441;DHT22;1231;53.988;9.470;2023-04-28T15:30:21;13.80;66.00
2441;DHT22;1231;53.988;9.470;2023-04-28T15:33:13;13.80;66.20
2441;DHT22;1231;53.988;9.470;2023-04-28T15:36:07;13.80;66.20
2441;DHT22;1231;53.988;9.470;2023-04-28T15:38:58;13.80;66.40
2441;DHT22;1231;53.988;9.470;2023-04-28T15:41:49;13.80;66.50
2441;DHT22;1231;53.988;9.470;2023-04-28T15:44:40;13.80;66.00
2441;DHT22;1231;53.988;9.470;2023-04-28T15:47:31;13.70;66.30
2441;DHT22;1231;53.988;9.470;2023-04-28T15:50:23;13.70;66.20
2441;DHT22;1231;53.988;9.470;2023-04-28T15:53:14;13.60;66.20
2441;DHT22;1231;53.988;9.470;2023-04-28T15:56:05;13.50;66.20
2441;DHT22;1231;53.988;9.470;2023-04-28T15:58:56;13.50;66.50
2441;DHT22;1231;53.988;9.470;2023-04-28T16:01:47;13.40;66.80
2441;DHT22;1231;53.988;9.470;2023-04-28T16:04:38;13.40;66.90
2441;DHT22;1231;53.988;9.470;2023-04-28T16:07:29;13.30;66.90
2441;DHT22;1231;53.988;9.470;2023-04-28T16:10:27;13.30;67.00
2441;DHT22;1231;53.988;9.470;2023-04-28T16:13:18;13.20;66.90
2441;DHT22;1231;53.988;9.470;2023-04-28T16:16:09;13.10;67.60
2441;DHT22;1231;53.988;9.470;2023-04-28T16:19:00;13.00;67.70
2441;DHT22;1231;53.988;9.470;2023-04-28T16:21:51;13.00;67.80
2441;DHT22;1231;53.988;9.470;2023-04-28T16:24:42;13.00;68.20
2441;DHT22;1231;53.988;9.470;2023-04-28T16:27:34;12.90;68.30
2441;DHT22;1231;53.988;9.470;2023-04-28T16:30:25;12.90;68.30
2441;DHT22;1231;53.988;9.470;2023-04-28T16:33:16;12.90;68.30
2441;DHT22;1231;53.988;9.470;2023-04-28T16:36:07;12.80;68.70
2441;DHT22;1231;53.988;9.470;2023-04-28T16:38:58;12.80;69.10
2441;DHT22;1231;53.988;9.470;2023-04-28T16:41:49;12.70;69.40
2441;DHT22;1231;53.988;9.470;2023-04-28T16:44:41;12.70;69.60
2441;DHT22;1231;53.988;9.470;2023-04-28T16:47:32;12.60;69.70
2441;DHT22;1231;53.988;9.470;2023-04-28T16:50:23;12.60;70.10
2441;DHT22;1231;53.988;9.470;2023-04-28T16:53:14;12.50;70.70
2441;DHT22;1231;53.988;9.470;2023-04-28T16:56:05;12.40;71.20
2441;DHT22;1231;53.988;9.470;2023-04-28T16:58:56;12.30;71.90
2441;DHT22;1231;53.988;9.470;2023-04-28T17:01:47;12.30;72.50
2441;DHT22;1231;53.988;9.470;2023-04-28T17:04:38;12.20;73.30
2441;DHT22;1231;53.988;9.470;2023-04-28T17:07:31;12.10;74.00
2441;DHT22;1231;53.988;9.470;2023-04-28T17:10:22;12.00;74.70
2441;DHT22;1231;53.988;9.470;2023-04-28T17:13:13;11.90;75.50
2441;DHT22;1231;53.988;9.470;2023-04-28T17:16:04;11.80;76.50
2441;DHT22;1231;53.988;9.470;2023-04-28T17:18:55;11.70;77.20
2441;DHT22;1231;53.988;9.470;2023-04-28T17:21:46;11.60;77.50
2441;DHT22;1231;53.988;9.470;2023-04-28T17:24:39;11.60;78.10
2441;DHT22;1231;53.988;9.470;2023-04-28T17:27:30;11.50;78.60
2441;DHT22;1231;53.988;9.470;2023-04-28T17:30:21;11.40;78.90
2441;DHT22;1231;53.988;9.470;2023-04-28T17:33:12;11.40;79.60
2441;DHT22;1231;53.988;9.470;2023-04-28T17:36:03;11.40;79.90
2441;DHT22;1231;53.988;9.470;2023-04-28T17:38:54;11.40;79.80
2441;DHT22;1231;53.988;9.470;2023-04-28T17:41:45;11.40;80.30
2441;DHT22;1231;53.988;9.470;2023-04-28T17:44:37;11.40;80.70
2441;DHT22;1231;53.988;9.470;2023-04-28T17:47:28;11.30;81.00
2441;DHT22;1231;53.988;9.470;2023-04-28T17:50:18;11.30;81.20
2441;DHT22;1231;53.988;9.470;2023-04-28T17:53:09;11.30;81.40
2441;DHT22;1231;53.988;9.470;2023-04-28T17:56:00;11.30;81.70
2441;DHT22;1231;53.988;9.470;2023-04-28T17:58:52;11.30;81.90
2441;DHT22;1231;53.988;9.470;2023-04-28T18:01:43;11.20;82.20
2441;DHT22;1231;53.988;9.470;2023-04-28T18:04:34;11.20;82.30
2441;DHT22;1231;53.988;9.470;2023-04-28T18:07:25;11.20;82.60
2441;DHT22;1231;53.988;9.470;2023-04-28T18:10:17;11.20;82.70
2441;DHT22;1231;53.988;9.470;2023-04-28T18:13:08;11.10;82.80
2441;DHT22;1231;53.988;9.470;2023-04-28T18:15:59;11.10;82.80
2441;DHT22;1231;53.988;9.470;2023-04-28T18:18:50;11.10;82.80
2441;DHT22;1231;53.988;9.470;2023-04-28T18:21:42;11.00;82.70
2441;DHT22;1231;53.988;9.470;2023-04-28T18:24:32;11.00;82.90
2441;DHT22;1231;53.988;9.470;2023-04-28T18:27:24;10.90;83.20
2441;DHT22;1231;53.988;9.470;2023-04-28T18:30:15;10.80;83.30
2441;DHT22;1231;53.988;9.470;2023-04-28T18:33:18;10.70;83.40
2441;DHT22;1231;53.988;9.470;2023-04-28T18:36:10;10.60;83.80
2441;DHT22;1231;53.988;9.470;2023-04-28T18:39:02;10.50;84.20
2441;DHT22;1231;53.988;9.470;2023-04-28T18:41:54;10.30;84.80
2441;DHT22;1231;53.988;9.470;2023-04-28T18:44:45;10.30;85.20
2441;DHT22;1231;53.988;9.470;2023-04-28T18:47:36;10.20;85.50
2441;DHT22;1231;53.988;9.470;2023-04-28T18:50:28;10.20;85.80
2441;DHT22;1231;53.988;9.470;2023-04-28T18:53:19;10.10;86.10
2441;DHT22;1231;53.988;9.470;2023-04-28T18:56:10;10.10;86.10
2441;DHT22;1231;53.988;9.470;2023-04-28T18:59:02;10.00;86.00
2441;DHT22;1231;53.988;9.470;2023-04-28T19:01:54;10.00;86.00
2441;DHT22;1231;53.988;9.470;2023-04-28T19:04:45;9.90;86.00